createdAt,value
2018-11-25T00:00:57.332Z,100854.98
2018-11-25T00:03:24.450Z,100853.16
2018-11-25T00:05:51.630Z,100847.18
2018-11-25T00:08:18.771Z,100841.55
2018-11-25T00:10:45.962Z,100842.03
2018-11-25T00:13:13.140Z,100841.20
2018-11-25T00:15:40.249Z,100840.73
2018-11-25T00:18:07.783Z,100834.67
2018-11-25T00:20:34.997Z,100834.70
2018-11-25T00:23:02.186Z,100824.73
2018-11-25T00:25:29.306Z,100825.95
2018-11-25T00:27:56.569Z,100829.02
2018-11-25T00:30:23.699Z,100830.21
2018-11-25T00:32:50.862Z,100829.30
2018-11-25T00:35:18.121Z,100823.63
2018-11-25T00:37:48.360Z,100822.88
2018-11-25T00:40:13.485Z,100811.66
2018-11-25T00:42:40.723Z,100806.87
2018-11-25T00:45:10.406Z,100809.06
2018-11-25T00:47:37.614Z,100798.68
2018-11-25T00:50:07.216Z,100812.44
2018-11-25T00:52:34.335Z,100811.89
2018-11-25T00:55:01.501Z,100810.64
2018-11-25T00:57:28.698Z,100815.34
2018-11-25T00:59:55.853Z,100819.74
2018-11-25T01:02:23.085Z,100826.67
2018-11-25T01:04:50.264Z,100827.63
2018-11-25T01:07:17.529Z,100835.47
2018-11-25T01:09:44.654Z,100827.19
2018-11-25T01:12:11.850Z,100828.55
2018-11-25T01:14:38.990Z,100831.98
2018-11-25T01:17:06.142Z,100834.16
2018-11-25T01:19:33.338Z,100828.39
2018-11-25T01:22:00.473Z,100826.59
2018-11-25T01:24:27.609Z,100830.23
2018-11-25T01:26:54.853Z,100824.55
2018-11-25T01:29:22.012Z,100832.45
2018-11-25T01:31:49.165Z,100819.44
2018-11-25T01:34:16.353Z,100822.86
2018-11-25T01:36:43.477Z,100823.25
2018-11-25T01:39:10.633Z,100821.93
2018-11-25T01:41:37.870Z,100821.09
2018-11-25T01:44:05.058Z,100815.56
2018-11-25T01:46:32.211Z,100816.36
2018-11-25T01:48:59.414Z,100800.80
2018-11-25T01:51:26.558Z,100806.52
2018-11-25T01:53:53.739Z,100797.85
2018-11-25T01:56:20.994Z,100802.99
2018-11-25T01:58:48.125Z,100799.94
2018-11-25T02:01:15.265Z,100807.23
2018-11-25T02:03:42.489Z,100805.92
2018-11-25T02:06:09.609Z,100809.38
2018-11-25T02:08:36.782Z,100804.16
2018-11-25T02:11:04.025Z,100799.44
2018-11-25T02:13:31.250Z,100801.58
2018-11-25T02:15:58.372Z,100791.58
2018-11-25T02:18:25.556Z,100795.03
2018-11-25T02:20:52.801Z,100795.51
2018-11-25T02:23:19.940Z,100802.96
2018-11-25T02:25:47.161Z,100787.30
2018-11-25T02:28:14.286Z,100785.97
2018-11-25T02:30:41.450Z,100790.70
2018-11-25T02:33:08.614Z,100783.37
2018-11-25T02:35:35.841Z,100769.55
2018-11-25T02:38:02.979Z,100771.29
2018-11-25T02:40:30.176Z,100777.77
2018-11-25T02:42:57.305Z,100780.36
2018-11-25T02:45:24.442Z,100779.52
2018-11-25T02:47:51.621Z,100782.59
2018-11-25T02:50:26.043Z,100782.14
2018-11-25T02:52:54.090Z,100780.06
2018-11-25T02:55:23.022Z,100780.51
2018-11-25T02:57:50.297Z,100780.05
2018-11-25T03:00:17.474Z,100783.45
2018-11-25T03:02:44.606Z,100776.59
2018-11-25T03:05:11.790Z,100771.48
2018-11-25T03:07:38.999Z,100760.55
2018-11-25T03:10:06.462Z,100754.41
2018-11-25T03:12:33.600Z,100750.50
2018-11-25T03:15:00.771Z,100755.69
2018-11-25T03:17:27.890Z,100754.45
2018-11-25T03:19:55.029Z,100760.06
2018-11-25T03:22:22.219Z,100749.66
2018-11-25T03:24:49.342Z,100755.33
2018-11-25T03:27:16.477Z,100757.45
2018-11-25T03:29:43.635Z,100760.08
2018-11-25T03:32:10.769Z,100753.13
2018-11-25T03:34:37.887Z,100756.16
2018-11-25T03:37:05.268Z,100759.66
2018-11-25T03:39:32.419Z,100760.08
2018-11-25T03:41:59.669Z,100756.63
2018-11-25T03:44:26.850Z,100761.00
2018-11-25T03:46:53.993Z,100756.25
2018-11-25T03:49:21.222Z,100757.56
2018-11-25T03:51:48.429Z,100755.48
2018-11-25T03:54:15.558Z,100748.92
2018-11-25T03:56:42.697Z,100749.81
2018-11-25T03:59:09.889Z,100758.47
2018-11-25T04:01:37.009Z,100754.56
2018-11-25T04:04:04.821Z,100752.41
2018-11-25T04:06:32.012Z,100758.13
2018-11-25T04:08:59.138Z,100755.52
2018-11-25T04:11:26.279Z,100751.15
2018-11-25T04:13:53.445Z,100750.23
2018-11-25T04:16:20.556Z,100749.37
2018-11-25T04:18:47.669Z,100743.21
2018-11-25T04:21:15.239Z,100738.44
2018-11-25T04:23:42.815Z,100739.76
2018-11-25T04:26:09.946Z,100733.69
2018-11-25T04:28:37.109Z,100731.09
2018-11-25T04:31:04.302Z,100735.85
2018-11-25T04:33:31.417Z,100738.45
2018-11-25T04:35:58.597Z,100743.28
2018-11-25T04:38:25.768Z,100746.30
2018-11-25T04:40:53.209Z,100750.20
2018-11-25T04:43:20.362Z,100753.66
2018-11-25T04:45:47.507Z,100744.58
2018-11-25T04:48:14.629Z,100742.82
2018-11-25T04:50:41.873Z,100739.84
2018-11-25T04:53:09.069Z,100738.11
2018-11-25T04:55:36.213Z,100729.00
2018-11-25T04:58:03.466Z,100722.45
2018-11-25T05:00:30.638Z,100731.17
2018-11-25T05:02:57.809Z,100726.80
2018-11-25T05:05:28.830Z,100737.21
2018-11-25T05:07:55.978Z,100734.61
2018-11-25T05:10:23.113Z,100728.53
2018-11-25T05:12:50.301Z,100722.46
2018-11-25T05:15:21.033Z,100720.27
2018-11-25T05:17:48.243Z,100725.52
2018-11-25T05:20:16.007Z,100733.75
2018-11-25T05:22:43.218Z,100724.66
2018-11-25T05:25:11.469Z,100727.66
2018-11-25T05:27:38.679Z,100732.86
2018-11-25T05:30:10.452Z,100731.56
2018-11-25T05:35:58.123Z,100725.09
2018-11-25T05:38:25.261Z,100729.04
2018-11-25T05:40:52.580Z,100729.86
2018-11-25T05:43:19.840Z,100737.23
2018-11-25T05:45:47.057Z,100735.56
2018-11-25T05:49:45.252Z,100727.73
2018-11-25T05:53:48.646Z,100719.89
2018-11-25T05:56:15.917Z,100722.52
2018-11-25T05:58:43.036Z,100722.06
2018-11-25T06:03:31.579Z,100720.38
2018-11-25T06:05:59.061Z,100723.39
2018-11-25T06:08:26.339Z,100722.08
2018-11-25T06:10:53.697Z,100734.28
2018-11-25T06:13:20.838Z,100738.59
2018-11-25T06:15:47.983Z,100737.33
2018-11-25T06:18:15.177Z,100736.48
2018-11-25T06:20:42.345Z,100734.77
2018-11-25T06:23:09.509Z,100735.56
2018-11-25T06:25:36.765Z,100734.27
2018-11-25T06:28:04.159Z,100736.92
2018-11-25T06:30:31.318Z,100731.69
2018-11-25T06:32:58.553Z,100732.58
2018-11-25T06:35:25.705Z,100733.00
2018-11-25T06:37:52.875Z,100735.97
2018-11-25T06:40:20.189Z,100736.89
2018-11-25T06:42:47.450Z,100738.19
2018-11-25T06:45:23.826Z,100732.06
2018-11-25T06:50:30.169Z,100732.05
2018-11-25T06:52:57.408Z,100735.48
2018-11-25T06:55:24.597Z,100733.80
2018-11-25T06:57:52.076Z,100736.86
2018-11-25T07:00:20.195Z,100743.38
2018-11-25T07:02:47.593Z,100740.33
2018-11-25T07:05:15.108Z,100745.11
2018-11-25T07:07:42.238Z,100748.15
2018-11-25T07:10:14.456Z,100759.50
2018-11-25T07:12:41.670Z,100756.05
2018-11-25T07:15:11.278Z,100763.02
2018-11-25T07:17:38.483Z,100759.10
2018-11-25T07:20:07.718Z,100760.41
2018-11-25T07:22:34.878Z,100758.28
2018-11-25T07:25:02.117Z,100763.94
2018-11-25T07:27:29.238Z,100766.98
2018-11-25T07:29:56.390Z,100768.73
2018-11-25T07:32:23.658Z,100771.34
2018-11-25T07:34:50.810Z,100776.13
2018-11-25T07:37:17.974Z,100776.13
2018-11-25T07:39:45.175Z,100772.67
2018-11-25T07:42:12.305Z,100776.14
2018-11-25T07:44:39.470Z,100766.59
2018-11-25T07:47:06.661Z,100767.02
2018-11-25T07:49:33.793Z,100765.75
2018-11-25T07:52:00.922Z,100769.65
2018-11-25T07:54:28.126Z,100772.70
2018-11-25T07:56:55.260Z,100772.27
2018-11-25T07:59:22.406Z,100772.69
2018-11-25T08:01:49.581Z,100775.73
2018-11-25T08:04:16.720Z,100774.87
2018-11-25T08:06:43.899Z,100779.22
2018-11-25T08:09:11.123Z,100782.69
2018-11-25T08:11:38.285Z,100777.91
2018-11-25T08:14:05.529Z,100784.84
2018-11-25T08:16:32.795Z,100786.60
2018-11-25T08:18:59.920Z,100777.92
2018-11-25T08:21:27.064Z,100784.88
2018-11-25T08:23:54.370Z,100785.30
2018-11-25T08:26:21.569Z,100785.70
2018-11-25T08:28:48.763Z,100781.36
2018-11-25T08:31:15.966Z,100780.05
2018-11-25T08:33:43.098Z,100784.42
2018-11-25T08:36:10.300Z,100784.41
2018-11-25T08:38:37.526Z,100783.08
2018-11-25T08:41:05.125Z,100775.69
2018-11-25T08:43:32.349Z,100777.88
2018-11-25T08:45:59.551Z,100776.62
2018-11-25T08:48:26.789Z,100776.14
2018-11-25T08:50:53.950Z,100772.67
2018-11-25T08:53:21.183Z,100770.95
2018-11-25T08:55:48.325Z,100770.94
2018-11-25T08:58:18.537Z,100764.41
2018-11-25T09:00:45.966Z,100764.84
2018-11-25T09:03:13.176Z,100768.35
2018-11-25T09:05:40.373Z,100764.44
2018-11-25T09:08:07.582Z,100759.67
2018-11-25T09:10:34.717Z,100760.09
2018-11-25T09:13:01.905Z,100755.76
2018-11-25T09:15:30.082Z,100759.66
2018-11-25T09:17:57.470Z,100759.23
2018-11-25T09:20:24.670Z,100767.03
2018-11-25T09:22:52.268Z,100772.69
2018-11-25T09:25:21.504Z,100769.62
2018-11-25T09:27:48.710Z,100767.86
2018-11-25T09:30:17.232Z,100770.05
2018-11-25T09:32:44.479Z,100774.80
2018-11-25T09:35:11.684Z,100769.19
2018-11-25T09:37:38.951Z,100774.84
2018-11-25T09:40:11.689Z,100782.63
2018-11-25T09:42:38.937Z,100787.42
2018-11-25T09:45:09.482Z,100792.59
2018-11-25T09:47:36.670Z,100791.25
2018-11-25T09:50:04.321Z,100794.36
2018-11-25T09:52:31.495Z,100790.41
2018-11-25T09:54:58.669Z,100785.69
2018-11-25T09:57:25.885Z,100783.06
2018-11-25T09:59:53.058Z,100785.68
2018-11-25T10:02:20.223Z,100790.44
2018-11-25T10:04:47.559Z,100783.48
2018-11-25T10:07:14.756Z,100782.59
2018-11-25T10:09:41.925Z,100779.51
2018-11-25T10:12:09.188Z,100777.33
2018-11-25T10:14:36.371Z,100772.11
2018-11-25T10:17:03.542Z,100768.16
2018-11-25T10:19:30.769Z,100765.07
2018-11-25T10:21:57.995Z,100762.46
2018-11-25T10:24:25.281Z,100760.80
2018-11-25T10:26:52.486Z,100761.54
2018-11-25T10:29:19.638Z,100762.89
2018-11-25T10:31:46.826Z,100762.89
2018-11-25T10:34:14.066Z,100760.13
2018-11-25T10:36:41.249Z,100760.27
2018-11-25T10:39:08.556Z,100751.17
2018-11-25T10:41:35.934Z,100753.05
2018-11-25T10:44:03.187Z,100757.86
2018-11-25T10:46:30.324Z,100758.41
2018-11-25T10:48:57.555Z,100756.71
2018-11-25T10:51:24.757Z,100754.31
2018-11-25T10:53:51.974Z,100757.59
2018-11-25T10:56:19.212Z,100761.84
2018-11-25T10:58:46.409Z,100759.09
2018-11-25T11:01:19.235Z,100758.73
2018-11-25T11:03:52.211Z,100758.80
2018-11-25T11:06:25.278Z,100753.33
2018-11-25T11:08:52.439Z,100750.44
2018-11-25T11:11:19.656Z,100753.13
2018-11-25T11:13:46.889Z,100761.83
2018-11-25T11:16:14.099Z,100763.33
2018-11-25T11:18:41.276Z,100757.14
2018-11-25T11:21:08.561Z,100756.97
2018-11-25T11:23:35.734Z,100756.11
2018-11-25T11:26:06.960Z,100754.19
2018-11-25T11:28:30.234Z,100751.28
2018-11-25T11:30:57.402Z,100746.66
2018-11-25T11:33:24.743Z,100749.77
2018-11-25T11:35:51.942Z,100753.52
2018-11-25T11:38:19.094Z,100749.48
2018-11-25T11:40:46.330Z,100755.84
2018-11-25T11:43:13.610Z,100750.03
2018-11-25T11:45:40.757Z,100753.31
2018-11-25T11:48:07.901Z,100758.41
2018-11-25T11:50:35.120Z,100755.53
2018-11-25T11:53:02.444Z,100749.84
2018-11-25T11:55:29.739Z,100751.59
2018-11-25T11:57:56.941Z,100749.25
2018-11-25T12:00:26.381Z,100751.09
2018-11-25T12:02:53.586Z,100755.85
2018-11-25T12:05:20.942Z,100748.77
2018-11-25T12:07:48.087Z,100747.62
2018-11-25T12:10:15.895Z,100749.28
2018-11-25T12:12:43.118Z,100744.44
2018-11-25T12:15:14.306Z,100750.27
2018-11-25T12:17:41.494Z,100752.13
2018-11-25T12:20:09.341Z,100751.70
2018-11-25T12:22:37.674Z,100750.94
2018-11-25T12:25:03.875Z,100743.20
2018-11-25T12:27:31.058Z,100747.40
2018-11-25T12:29:58.174Z,100743.03
2018-11-25T12:32:25.301Z,100742.23
2018-11-25T12:34:52.518Z,100742.09
2018-11-25T12:37:19.663Z,100745.13
2018-11-25T12:39:46.898Z,100738.98
2018-11-25T12:42:14.081Z,100735.62
2018-11-25T12:44:41.213Z,100741.72
2018-11-25T12:47:08.374Z,100737.31
2018-11-25T12:49:36.598Z,100735.07
2018-11-25T12:52:03.769Z,100738.55
2018-11-25T12:54:30.890Z,100729.77
2018-11-25T12:56:58.080Z,100735.85
2018-11-25T12:59:25.261Z,100729.33
2018-11-25T13:01:52.735Z,100721.84
2018-11-25T13:04:19.954Z,100733.81
2018-11-25T13:06:47.082Z,100728.00
2018-11-25T13:09:14.186Z,100726.70
2018-11-25T13:11:41.386Z,100725.48
2018-11-25T13:14:08.494Z,100723.72
2018-11-25T13:16:35.609Z,100723.72
2018-11-25T13:19:02.803Z,100724.95
2018-11-25T13:21:29.978Z,100721.91
2018-11-25T13:23:57.122Z,100724.87
2018-11-25T13:26:24.305Z,100719.28
2018-11-25T13:28:51.442Z,100714.13
2018-11-25T13:31:18.573Z,100717.04
2018-11-25T13:33:45.754Z,100717.05
2018-11-25T13:36:12.974Z,100722.27
2018-11-25T13:38:40.113Z,100718.51
2018-11-25T13:41:07.350Z,100714.96
2018-11-25T13:43:34.486Z,100713.66
2018-11-25T13:46:01.631Z,100715.80
2018-11-25T13:48:28.934Z,100708.53
2018-11-25T13:51:06.021Z,100713.64
2018-11-25T13:53:33.309Z,100709.72
2018-11-25T13:56:00.446Z,100710.20
2018-11-25T13:58:27.584Z,100705.05
2018-11-25T14:00:54.819Z,100703.52
2018-11-25T14:03:41.231Z,100707.82
2018-11-25T14:06:10.927Z,100706.14
2018-11-25T14:08:38.375Z,100704.95
2018-11-25T14:11:09.390Z,100705.44
2018-11-25T14:13:36.851Z,100710.70
2018-11-25T14:16:06.214Z,100712.41
2018-11-25T14:18:33.488Z,100706.73
2018-11-25T14:21:00.732Z,100702.83
2018-11-25T14:23:27.944Z,100700.64
2018-11-25T14:25:56.101Z,100704.95
2018-11-25T14:28:23.269Z,100703.20
2018-11-25T14:30:50.399Z,100713.17
2018-11-25T14:33:17.542Z,100714.14
2018-11-25T14:35:44.747Z,100724.15
2018-11-25T14:38:11.917Z,100719.80
2018-11-25T14:40:39.044Z,100730.38
2018-11-25T14:43:06.742Z,100724.76
2018-11-25T14:45:33.902Z,100729.94
2018-11-25T14:48:01.040Z,100733.05
2018-11-25T14:50:28.234Z,100735.20
2018-11-25T14:52:55.351Z,100730.84
2018-11-25T14:55:22.480Z,100738.67
2018-11-25T14:57:49.669Z,100732.16
2018-11-25T15:00:17.730Z,100733.48
2018-11-25T15:02:47.233Z,100746.94
2018-11-25T15:05:19.592Z,100744.77
2018-11-25T15:07:46.766Z,100735.63
2018-11-25T15:10:13.900Z,100737.81
2018-11-25T15:12:41.225Z,100737.81
2018-11-25T15:15:10.363Z,100741.72
2018-11-25T15:17:37.534Z,100743.46
2018-11-25T15:20:07.465Z,100742.59
2018-11-25T15:22:34.625Z,100746.94
2018-11-25T15:25:01.811Z,100746.94
2018-11-25T15:27:28.999Z,100749.98
2018-11-25T15:29:56.117Z,100750.45
2018-11-25T15:32:24.164Z,100744.33
2018-11-25T15:34:50.587Z,100748.68
2018-11-25T15:37:17.788Z,100748.66
2018-11-25T15:39:44.969Z,100750.83
2018-11-25T15:42:12.162Z,100755.17
2018-11-25T15:44:39.454Z,100756.05
2018-11-25T15:47:08.142Z,100754.70
2018-11-25T15:49:33.930Z,100761.67
2018-11-25T15:52:01.130Z,100760.39
2018-11-25T15:54:28.282Z,100761.67
2018-11-25T15:56:55.480Z,100762.57
2018-11-25T15:59:22.697Z,100763.41
2018-11-25T16:01:49.878Z,100761.23
2018-11-25T16:04:17.161Z,100763.44
2018-11-25T16:06:44.403Z,100753.00
2018-11-25T16:09:11.559Z,100759.06
2018-11-25T16:11:38.970Z,100756.45
2018-11-25T16:14:06.117Z,100757.31
2018-11-25T16:16:33.274Z,100760.83
2018-11-25T16:19:00.493Z,100757.78
2018-11-25T16:21:27.820Z,100758.63
2018-11-25T16:23:55.005Z,100759.49
2018-11-25T16:26:25.010Z,100760.80
2018-11-25T16:28:54.454Z,100753.44
2018-11-25T16:31:21.673Z,100754.30
2018-11-25T16:33:48.873Z,100755.20
2018-11-25T16:36:16.122Z,100757.78
2018-11-25T16:38:43.429Z,100756.88
2018-11-25T16:41:10.605Z,100751.70
2018-11-25T16:43:37.773Z,100759.99
2018-11-25T16:46:04.938Z,100765.18
2018-11-25T16:48:32.125Z,100755.17
2018-11-25T16:50:59.386Z,100760.39
2018-11-25T16:53:26.538Z,100763.41
2018-11-25T16:55:53.762Z,100756.02
2018-11-25T16:58:20.916Z,100757.32
2018-11-25T17:00:48.055Z,100753.00
2018-11-25T17:03:15.386Z,100757.75
2018-11-25T17:05:44.354Z,100759.53
2018-11-25T17:08:18.865Z,100753.84
2018-11-25T17:10:46.062Z,100758.63
2018-11-25T17:13:13.278Z,100759.09
2018-11-25T17:15:40.578Z,100763.01
2018-11-25T17:18:07.741Z,100764.28
2018-11-25T17:20:34.885Z,100762.98
2018-11-25T17:23:02.077Z,100762.98
2018-11-25T17:25:29.309Z,100764.34
2018-11-25T17:27:56.438Z,100762.98
2018-11-25T17:30:23.634Z,100768.20
2018-11-25T17:32:50.784Z,100765.15
2018-11-25T17:35:22.690Z,100764.28
2018-11-25T17:37:49.917Z,100759.53
2018-11-25T17:40:17.107Z,100764.28
2018-11-25T17:42:44.320Z,100764.71
2018-11-25T17:45:12.378Z,100762.14
2018-11-25T17:47:39.700Z,100763.41
2018-11-25T17:50:12.978Z,100767.79
2018-11-25T17:52:40.117Z,100768.20
2018-11-25T17:55:09.060Z,100774.31
2018-11-25T17:57:36.257Z,100767.36
2018-11-25T18:00:06.385Z,100764.75
2018-11-25T18:02:33.522Z,100765.18
2018-11-25T18:05:00.726Z,100761.70
2018-11-25T18:07:27.968Z,100763.01
2018-11-25T18:09:55.157Z,100767.82
2018-11-25T18:12:22.398Z,100774.31
2018-11-25T18:14:49.532Z,100769.97
2018-11-25T18:17:16.672Z,100775.22
2018-11-25T18:19:43.956Z,100771.77
2018-11-25T18:22:13.957Z,100772.14
2018-11-25T18:24:41.082Z,100766.05
2018-11-25T18:27:08.367Z,100777.83
2018-11-25T18:29:35.501Z,100776.09
2018-11-25T18:32:02.738Z,100772.17
2018-11-25T18:34:29.954Z,100776.06
2018-11-25T18:36:57.091Z,100773.91
2018-11-25T18:39:24.246Z,100765.18
2018-11-25T18:41:51.891Z,100774.34
2018-11-25T18:44:19.081Z,100769.56
2018-11-25T18:46:47.732Z,100779.56
2018-11-25T18:49:13.702Z,100775.19
2018-11-25T18:51:40.872Z,100777.36
2018-11-25T18:54:08.386Z,100780.41
2018-11-25T18:56:35.622Z,100776.93
2018-11-25T18:59:02.808Z,100779.10
2018-11-25T19:01:54.714Z,100776.52
2018-11-25T19:04:21.899Z,100775.65
2018-11-25T19:06:49.116Z,100779.11
2018-11-25T19:09:16.478Z,100766.92
2018-11-25T19:11:43.739Z,100772.19
2018-11-25T19:14:10.997Z,100772.63
2018-11-25T19:16:38.541Z,100773.06
2018-11-25T19:19:05.862Z,100776.08
2018-11-25T19:21:33.166Z,100774.80
2018-11-25T19:24:00.552Z,100783.05
2018-11-25T19:26:30.006Z,100780.88
2018-11-25T19:28:57.938Z,100784.78
2018-11-25T19:31:25.762Z,100784.35
2018-11-25T19:33:52.946Z,100791.31
2018-11-25T19:36:21.302Z,100786.12
2018-11-25T19:38:48.706Z,100790.87
2018-11-25T19:41:16.002Z,100788.69
2018-11-25T19:43:44.011Z,100787.41
2018-11-25T19:46:11.537Z,100787.84
2018-11-25T19:48:38.919Z,100789.17
2018-11-25T19:51:06.326Z,100792.22
2018-11-25T19:53:33.781Z,100794.39
2018-11-25T19:56:01.474Z,100789.15
2018-11-25T19:58:32.102Z,100781.31
2018-11-25T20:00:59.770Z,100789.61
2018-11-25T20:03:27.918Z,100789.62
2018-11-25T20:05:55.214Z,100793.98
2018-11-25T20:08:22.506Z,100796.57
2018-11-25T20:10:50.212Z,100797.86
2018-11-25T20:13:17.563Z,100794.38
2018-11-25T20:15:44.898Z,100800.48
2018-11-25T20:18:12.187Z,100800.50
2018-11-25T20:20:39.503Z,100803.53
2018-11-25T20:23:06.848Z,100807.42
2018-11-25T20:25:34.319Z,100807.00
2018-11-25T20:28:01.584Z,100803.55
2018-11-25T20:30:30.644Z,100810.48
2018-11-25T20:33:20.701Z,100811.78
2018-11-25T20:35:48.819Z,100810.92
2018-11-25T20:38:21.864Z,100808.33
2018-11-25T20:40:49.167Z,100805.27
2018-11-25T20:43:17.071Z,100810.91
2018-11-25T20:45:55.571Z,100808.75
2018-11-25T20:48:22.915Z,100808.77
2018-11-25T20:50:50.090Z,100817.02
2018-11-25T20:53:23.195Z,100814.39
2018-11-25T20:55:50.531Z,100804.41
2018-11-25T20:58:17.885Z,100817.00
2018-11-25T21:00:45.259Z,100815.70
2018-11-25T21:03:12.632Z,100810.94
2018-11-25T21:05:39.923Z,100812.22
2018-11-25T21:08:07.435Z,100807.00
2018-11-25T21:10:35.033Z,100817.45
2018-11-25T21:13:02.332Z,100810.50
2018-11-25T21:15:36.562Z,100812.69
2018-11-25T21:18:03.793Z,100817.01
2018-11-25T21:20:31.130Z,100819.63
2018-11-25T21:22:58.440Z,100815.28
2018-11-25T21:25:25.694Z,100803.13
2018-11-25T21:27:53.356Z,100807.89
2018-11-25T21:30:23.279Z,100807.47
2018-11-25T21:32:52.242Z,100816.17
2018-11-25T21:35:20.253Z,100820.06
2018-11-25T21:37:47.569Z,100821.38
2018-11-25T21:40:17.477Z,100812.68
2018-11-25T21:42:45.863Z,100816.56
2018-11-25T21:45:15.181Z,100814.41
2018-11-25T21:47:42.446Z,100818.77
2018-11-25T21:50:10.862Z,100815.72
2018-11-25T21:52:42.297Z,100817.47
2018-11-25T21:55:12.643Z,100827.46
2018-11-25T21:57:42.054Z,100826.58
2018-11-25T22:00:13.399Z,100828.31
2018-11-25T22:02:41.095Z,100828.73
2018-11-25T22:05:13.231Z,100825.28
2018-11-25T22:07:40.558Z,100829.20
2018-11-25T22:10:09.246Z,100833.09
2018-11-25T22:12:37.502Z,100824.85
2018-11-25T22:15:06.590Z,100828.77
2018-11-25T22:17:33.818Z,100828.73
2018-11-25T22:20:01.625Z,100837.02
2018-11-25T22:22:29.352Z,100837.84
2018-11-25T22:24:56.686Z,100842.20
2018-11-25T22:27:24.072Z,100839.16
2018-11-25T22:29:51.424Z,100839.19
2018-11-25T22:32:19.073Z,100838.74
2018-11-25T22:34:47.162Z,100839.59
2018-11-25T22:37:14.461Z,100834.39
2018-11-25T22:39:41.706Z,100844.38
2018-11-25T22:42:09.675Z,100836.13
2018-11-25T22:44:36.960Z,100831.77
2018-11-25T22:47:04.290Z,100836.13
2018-11-25T22:49:31.665Z,100824.80
2018-11-25T22:52:02.068Z,100834.76
2018-11-25T22:54:29.499Z,100836.98
2018-11-25T22:56:56.816Z,100831.77
2018-11-25T22:59:24.074Z,100830.88
2018-11-25T23:01:51.331Z,100834.38
2018-11-25T23:04:30.095Z,100823.92
2018-11-25T23:07:02.090Z,100823.48
2018-11-25T23:09:29.442Z,100822.61
2018-11-25T23:11:56.915Z,100832.61
2018-11-25T23:14:24.168Z,100830.86
2018-11-25T23:16:51.502Z,100831.73
2018-11-25T23:19:18.793Z,100825.66
2018-11-25T23:21:46.118Z,100832.59
2018-11-25T23:24:13.487Z,100826.54
2018-11-25T23:26:40.779Z,100827.41
2018-11-25T23:29:08.040Z,100836.94
2018-11-25T23:31:35.398Z,100835.62
2018-11-25T23:34:02.670Z,100833.83
2018-11-25T23:36:32.016Z,100842.12
2018-11-25T23:38:59.318Z,100845.17
2018-11-25T23:41:26.573Z,100848.66
2018-11-25T23:43:53.753Z,100846.05
2018-11-25T23:46:21.091Z,100838.22
2018-11-25T23:48:48.407Z,100835.55
2018-11-25T23:51:15.835Z,100832.09
2018-11-25T23:53:43.184Z,100831.27
2018-11-25T23:56:10.484Z,100835.14
2018-11-25T23:58:50.330Z,100835.16
